Time;durP1;ratioP1;P1;durP2;ratioP2;P2;SDS_P1;SDS_P2;PMS_P1;PMS_P2;Temp;Humidity;BMP_temperature;BMP_pressure;BME280_temperature;BME280_humidity;BME280_pressure;Samples;Min_cycle;Max_cycle;Signal;HPM_P1;HPM_P2
2023/01/25 00:00:45;;;;;;;24.47;10.70;;;;;;;-0.66;79.33;102223.22;1749755;80;21157;-66
2023/01/25 00:03:15;;;;;;;27.00;12.28;;;;;;;-0.66;79.18;102222.74;1779766;80;21157;-65
2023/01/25 00:05:45;;;;;;;27.55;12.23;;;;;;;-0.63;79.19;102223.09;1779791;79;21106;-66
2023/01/25 00:08:16;;;;;;;26.52;12.07;;;;;;;-0.61;79.22;102238.69;1780060;80;21506;-64
2023/01/25 00:10:50;;;;;;;23.35;11.83;;;;;;;-0.58;79.23;102231.80;1779847;80;21521;-67
2023/01/25 00:13:20;;;;;;;27.02;12.13;;;;;;;-0.60;78.99;102231.00;1779912;80;21142;-65
2023/01/25 00:15:50;;;;;;;28.38;13.08;;;;;;;-0.63;79.03;102231.16;1779957;80;21122;-64
2023/01/25 00:18:20;;;;;;;24.52;11.80;;;;;;;-0.61;79.15;102237.34;1782044;80;21134;-64
2023/01/25 00:20:51;;;;;;;25.92;11.93;;;;;;;-0.59;79.02;102231.88;1756595;80;21102;-65
2023/01/25 00:23:21;;;;;;;30.15;14.43;;;;;;;-0.57;78.88;102228.62;1785834;80;21098;-65
2023/01/25 00:25:58;;;;;;;36.68;15.70;;;;;;;-0.54;78.81;102228.47;1785845;80;21120;-65
2023/01/25 00:28:29;;;;;;;28.27;12.95;;;;;;;-0.53;78.69;102221.66;1785933;80;21619;-64
2023/01/25 00:31:02;;;;;;;27.07;12.78;;;;;;;-0.51;78.47;102218.88;1757484;80;21133;-64
2023/01/25 00:33:51;;;;;;;25.90;12.78;;;;;;;-0.52;78.43;102218.01;1785560;80;21145;-64
2023/01/25 00:36:35;;;;;;;28.52;13.70;;;;;;;-0.51;78.33;102217.53;1785575;80;21506;-64
2023/01/25 00:39:06;;;;;;;25.05;12.37;;;;;;;-0.51;78.16;102213.02;1782264;80;21177;-64
2023/01/25 00:41:38;;;;;;;29.02;13.80;;;;;;;-0.55;77.39;102211.91;1785954;80;21325;-65
2023/01/25 00:44:08;;;;;;;28.45;13.05;;;;;;;-0.63;76.99;102209.63;1785690;80;21580;-65
2023/01/25 00:46:39;;;;;;;30.90;13.40;;;;;;;-0.70;76.82;102206.84;1692567;84;21174;-65
2023/01/25 00:49:26;;;;;;;21.95;11.40;;;;;;;-0.72;76.55;102202.02;1669846;85;21286;-65
2023/01/25 00:51:56;;;;;;;26.30;12.68;;;;;;;-0.74;76.25;102194.02;1670232;85;21250;-64
2023/01/25 00:54:26;;;;;;;29.45;12.65;;;;;;;-0.78;75.50;102198.30;1692673;85;21134;-65
2023/01/25 00:56:56;;;;;;;30.52;12.73;;;;;;;-0.80;75.39;102206.93;1692395;83;21214;-64
2023/01/25 00:59:26;;;;;;;24.02;11.38;;;;;;;-0.82;75.41;102202.09;1692611;85;21257;-64
2023/01/25 01:01:56;;;;;;;27.93;12.05;;;;;;;-0.78;75.42;102198.30;1692187;85;21139;-65
2023/01/25 01:04:26;;;;;;;24.57;12.18;;;;;;;-0.79;75.31;102194.73;1692225;83;21222;-65
2023/01/25 01:06:57;;;;;;;24.35;12.10;;;;;;;-0.76;75.41;102188.32;1692425;85;21150;-66
2023/01/25 01:09:27;;;;;;;26.23;12.07;;;;;;;-0.73;75.42;102193.06;1692487;85;21170;-67
2023/01/25 01:11:59;;;;;;;26.27;11.75;;;;;;;-0.69;75.46;102193.77;1766607;80;21098;-65
2023/01/25 01:14:29;;;;;;;28.25;11.97;;;;;;;-0.66;75.35;102193.61;1785661;80;21082;-65
2023/01/25 01:16:59;;;;;;;26.45;11.53;;;;;;;-0.63;75.11;102196.65;1785458;80;21610;-67
2023/01/25 01:19:28;;;;;;;24.25;11.40;;;;;;;-0.63;74.99;102200.20;1785653;80;21126;-65
2023/01/25 01:21:58;;;;;;;24.92;10.50;;;;;;;-0.63;74.91;102203.37;1785521;80;21106;-67
2023/01/25 01:24:30;;;;;;;26.48;11.28;;;;;;;-0.64;74.89;102199.81;1785587;80;21599;-67
2023/01/25 01:26:59;;;;;;;24.15;10.28;;;;;;;-0.61;74.56;102198.78;1755822;80;21587;-66
2023/01/25 01:29:31;;;;;;;27.85;12.15;;;;;;;-0.67;74.44;102191.87;1785762;80;21133;-66
2023/01/25 01:32:01;;;;;;;27.75;13.43;;;;;;;-0.66;74.61;102200.34;1785669;80;21192;-65
2023/01/25 01:34:32;;;;;;;26.82;13.10;;;;;;;-0.66;74.71;102196.30;1785536;80;21102;-66
2023/01/25 01:37:01;;;;;;;28.50;12.55;;;;;;;-0.65;74.64;102197.60;1757394;80;21518;-67
2023/01/25 01:39:31;;;;;;;27.02;11.38;;;;;;;-0.61;74.76;102193.39;1785655;79;21088;-67
2023/01/25 01:42:01;;;;;;;27.48;11.40;;;;;;;-0.61;74.67;102199.66;1785631;80;21158;-65
2023/01/25 01:44:47;;;;;;;24.37;11.73;;;;;;;-0.62;74.69;102192.53;1785839;80;21571;-68
2023/01/25 01:47:30;;;;;;;25.68;11.63;;;;;;;-0.63;74.57;102188.57;1785770;80;21079;-68
2023/01/25 01:50:23;;;;;;;21.37;10.65;;;;;;;-0.64;74.65;102187.70;1692498;83;21241;-67
2023/01/25 01:52:53;;;;;;;23.83;12.40;;;;;;;-0.63;74.52;102184.53;1692309;85;21174;-66
2023/01/25 01:55:23;;;;;;;22.48;10.78;;;;;;;-0.64;74.55;102186.36;1692467;85;21114;-66
2023/01/25 01:57:56;;;;;;;31.00;14.07;;;;;;;-0.60;74.61;102189.28;1692675;85;21131;-67
2023/01/25 02:00:30;;;;;;;29.57;13.35;;;;;;;-0.60;74.52;102188.41;1692458;85;21138;-66
2023/01/25 02:03:01;;;;;;;25.70;10.88;;;;;;;-0.60;74.53;102174.47;1692409;85;21406;-66
2023/01/25 02:06:03;;;;;;;24.30;11.33;;;;;;;-0.58;74.50;102172.56;1692571;85;21194;-68
2023/01/25 02:08:35;;;;;;;21.77;10.58;;;;;;;-0.56;74.31;102179.22;1712376;82;21616;-66
2023/01/25 02:11:06;;;;;;;24.02;10.55;;;;;;;-0.60;74.10;102170.91;1740954;82;21119;-66
2023/01/25 02:13:36;;;;;;;21.48;9.65;;;;;;;-0.64;74.17;102172.89;1655143;87;21157;-67
2023/01/25 02:16:10;;;;;;;29.00;12.03;;;;;;;-0.66;74.08;102168.91;1655590;87;21376;-65
2023/01/25 02:18:39;;;;;;;21.62;10.28;;;;;;;-0.66;74.12;102168.04;1633391;87;21186;-66
2023/01/25 02:21:08;;;;;;;23.77;10.63;;;;;;;-0.67;73.92;102164.48;1650555;86;21146;-66
2023/01/25 02:23:53;;;;;;;19.65;9.43;;;;;;;-0.68;73.76;102161.87;1596957;90;21200;-66
2023/01/25 02:26:23;;;;;;;23.42;10.40;;;;;;;-0.72;73.56;102155.78;1609079;88;21146;-66
2023/01/25 02:28:57;;;;;;;23.52;10.85;;;;;;;-0.79;73.49;102160.23;1629267;88;21574;-65
2023/01/25 02:31:26;;;;;;;23.42;10.98;;;;;;;-0.80;73.67;102158.48;1637948;84;21124;-67
2023/01/25 02:33:56;;;;;;;26.35;11.68;;;;;;;-0.76;73.83;102157.38;1628963;88;21154;-66
2023/01/25 02:36:30;;;;;;;29.77;13.05;;;;;;;-0.76;73.71;102149.30;1629157;88;21210;-65
2023/01/25 02:39:14;;;;;;;30.97;12.43;;;;;;;-0.77;73.80;102150.25;1609027;88;21127;-64
2023/01/25 02:41:46;;;;;;;25.62;11.57;;;;;;;-0.77;73.89;102154.28;1655101;85;21586;-67
2023/01/25 02:44:20;;;;;;;29.00;11.55;;;;;;;-0.80;73.81;102151.28;1684626;84;21223;-67
2023/01/25 02:46:49;;;;;;;26.60;11.93;;;;;;;-0.81;73.96;102150.89;1685248;85;21206;-64
2023/01/25 02:49:20;;;;;;;29.63;12.47;;;;;;;-0.81;73.91;102156.27;1684937;85;21155;-65
2023/01/25 02:51:56;;;;;;;30.82;12.45;;;;;;;-0.82;73.97;102157.22;1684908;85;21135;-67
2023/01/25 02:54:24;;;;;;;23.02;11.08;;;;;;;-0.80;74.11;102153.97;1684709;85;21152;-66
2023/01/25 02:56:53;;;;;;;24.07;11.05;;;;;;;-0.76;74.09;102158.72;1685025;85;21213;-69
2023/01/25 02:59:23;;;;;;;24.65;11.63;;;;;;;-0.76;74.04;102161.41;1765853;80;21558;-65
2023/01/25 03:01:54;;;;;;;25.35;10.43;;;;;;;-0.74;74.02;102156.81;1779861;80;21547;-65
2023/01/25 03:04:24;;;;;;;25.97;11.20;;;;;;;-0.76;73.75;102161.41;1779672;80;21448;-65
2023/01/25 03:06:53;;;;;;;23.85;10.68;;;;;;;-0.77;73.77;102155.63;1779688;80;21214;-64
2023/01/25 03:09:24;;;;;;;21.42;9.68;;;;;;;-0.78;73.53;102156.58;1780268;80;21130;-65
2023/01/25 03:11:53;;;;;;;22.70;9.13;;;;;;;-0.84;73.51;102159.60;1779729;80;21197;-65
2023/01/25 03:14:23;;;;;;;21.37;9.53;;;;;;;-0.88;73.43;102155.33;1779872;80;21106;-66
2023/01/25 03:16:54;;;;;;;21.12;9.50;;;;;;;-0.91;73.46;102154.15;1780122;80;21099;-66
2023/01/25 03:19:24;;;;;;;22.98;10.28;;;;;;;-0.95;73.36;102154.79;1779620;80;21137;-63
2023/01/25 03:21:54;;;;;;;24.67;10.40;;;;;;;-0.95;73.68;102149.41;1749785;80;21134;-67
2023/01/25 03:24:23;;;;;;;19.40;9.03;;;;;;;-0.94;73.66;102154.31;1779807;80;21162;-67
2023/01/25 03:29:46;;;;;;;20.77;9.60;;;;;;;-0.92;73.94;102152.41;1779031;80;21114;-67
2023/01/25 03:32:18;;;;;;;21.07;9.33;;;;;;;-0.93;73.98;102155.58;1779624;80;21106;-67
2023/01/25 03:34:47;;;;;;;18.80;8.43;;;;;;;-0.90;73.92;102160.80;1780050;80;21102;-67
2023/01/25 03:37:17;;;;;;;19.95;8.40;;;;;;;-0.90;73.99;102158.58;1779713;80;21169;-66
2023/01/25 03:39:46;;;;;;;17.73;8.33;;;;;;;-0.87;73.83;102160.63;1779689;80;21126;-66
2023/01/25 03:42:16;;;;;;;18.55;8.38;;;;;;;-0.88;73.74;102155.33;1779833;80;21211;-65
2023/01/25 03:44:45;;;;;;;21.25;9.68;;;;;;;-0.90;73.69;102162.14;1779759;80;21874;-68
2023/01/25 03:47:15;;;;;;;17.40;8.93;;;;;;;-0.89;73.81;102165.22;1779705;80;21521;-66
2023/01/25 03:49:46;;;;;;;19.20;9.43;;;;;;;-0.90;73.78;102167.52;1779820;80;21581;-65
2023/01/25 03:52:17;;;;;;;23.50;8.78;;;;;;;-0.89;73.61;102163.88;1779777;80;21137;-66
2023/01/25 03:54:47;;;;;;;17.87;9.25;;;;;;;-0.96;73.41;102166.02;1779546;80;21157;-66
2023/01/25 03:57:19;;;;;;;21.15;9.73;;;;;;;-0.99;73.42;102163.50;1750573;80;21134;-65
2023/01/25 03:59:53;;;;;;;17.87;8.93;;;;;;;-1.01;73.55;102163.18;1779636;80;21141;-66
2023/01/25 04:02:23;;;;;;;20.80;9.63;;;;;;;-1.00;73.71;102159.54;1779902;80;22106;-65
2023/01/25 04:04:56;;;;;;;18.77;9.20;;;;;;;-1.00;73.73;102168.48;1748433;80;21185;-66
2023/01/25 04:07:27;;;;;;;22.93;10.65;;;;;;;-1.01;73.79;102172.13;1779743;80;21158;-63
2023/01/25 04:09:56;;;;;;;24.18;10.70;;;;;;;-0.98;73.84;102169.74;1779808;80;21197;-64
2023/01/25 04:12:25;;;;;;;19.98;9.55;;;;;;;-0.96;73.85;102166.50;1779806;80;21108;-66
2023/01/25 04:14:54;;;;;;;26.50;8.98;;;;;;;-0.97;73.86;102167.45;1779654;80;21106;-67
2023/01/25 04:17:23;;;;;;;22.45;9.58;;;;;;;-0.99;73.75;102160.80;1779621;79;21110;-66
2023/01/25 04:19:55;;;;;;;18.23;9.18;;;;;;;-1.04;73.96;102162.87;1781529;80;21125;-66
2023/01/25 04:22:27;;;;;;;19.65;9.45;;;;;;;-1.04;74.11;102158.83;1785557;80;21110;-66
2023/01/25 04:24:56;;;;;;;20.95;9.83;;;;;;;-1.04;74.23;102169.59;1785593;79;21613;-69
2023/01/25 04:27:27;;;;;;;23.73;9.78;;;;;;;-1.04;74.28;102167.38;1786078;79;21106;-64
2023/01/25 04:30:01;;;;;;;18.60;9.20;;;;;;;-1.03;74.48;102169.98;1785657;79;21142;-66
2023/01/25 04:32:34;;;;;;;23.38;9.75;;;;;;;-1.03;74.51;102168.64;1785594;80;21110;-65
2023/01/25 04:35:04;;;;;;;27.20;10.40;;;;;;;-1.01;74.56;102170.78;1758306;80;21153;-66
2023/01/25 04:37:35;;;;;;;19.32;9.95;;;;;;;-1.04;74.52;102153.92;1785568;80;21217;-65
2023/01/25 04:40:05;;;;;;;20.15;10.10;;;;;;;-1.05;74.70;102166.98;1785613;80;21165;-67
2023/01/25 04:42:38;;;;;;;20.45;8.55;;;;;;;-1.06;74.68;102162.55;1758921;80;21181;-66
2023/01/25 04:45:10;;;;;;;21.73;9.13;;;;;;;-1.08;74.62;102168.48;1785649;80;21106;-66
2023/01/25 04:47:40;;;;;;;17.10;8.98;;;;;;;-1.14;74.59;102165.64;1785579;80;21125;-66
2023/01/25 04:50:10;;;;;;;16.90;9.00;;;;;;;-1.16;74.81;102162.16;1785619;80;21145;-65
2023/01/25 04:52:40;;;;;;;21.10;9.40;;;;;;;-1.17;75.00;102167.14;1785811;80;21098;-65
2023/01/25 04:55:10;;;;;;;21.35;9.90;;;;;;;-1.16;75.14;102172.05;1785631;79;21469;-66
2023/01/25 04:57:42;;;;;;;20.23;9.10;;;;;;;-1.19;75.18;102166.35;1785635;80;21132;-66
2023/01/25 05:00:13;;;;;;;20.32;8.93;;;;;;;-1.18;75.13;102168.56;1785732;80;21106;-65
2023/01/25 05:02:42;;;;;;;18.37;9.35;;;;;;;-1.20;75.21;102165.95;1785581;79;21557;-67
2023/01/25 05:05:11;;;;;;;20.10;9.90;;;;;;;-1.19;75.37;102169.05;1751616;82;21122;-66
2023/01/25 05:07:42;;;;;;;21.60;10.18;;;;;;;-1.18;75.44;102166.75;1751726;82;21138;-65
2023/01/25 05:10:13;;;;;;;30.20;10.78;;;;;;;-1.17;75.55;102164.92;1751850;82;21091;-65
2023/01/25 05:12:46;;;;;;;26.05;10.78;;;;;;;-1.19;75.61;102173.08;1750849;81;21107;-68
2023/01/25 05:15:17;;;;;;;22.07;9.83;;;;;;;-1.23;75.69;102171.97;1751792;82;22190;-64
2023/01/25 05:17:46;;;;;;;18.73;9.20;;;;;;;-1.25;75.84;102173.39;1751572;82;21115;-65
2023/01/25 05:20:17;;;;;;;22.40;9.50;;;;;;;-1.24;75.90;102190.39;1754516;82;21550;-65
2023/01/25 05:22:46;;;;;;;21.27;9.80;;;;;;;-1.26;75.98;102181.06;1740233;82;21142;-66
2023/01/25 05:28:06;;;;;;;22.13;9.60;;;;;;;-1.27;76.03;102179.32;1757001;82;21154;-67
2023/01/25 05:30:49;;;;;;;28.17;10.80;;;;;;;-1.27;76.09;102173.95;1742126;82;21728;-66
2023/01/25 05:33:23;;;;;;;19.80;10.63;;;;;;;-1.26;76.06;102175.69;1756927;81;21123;-67
2023/01/25 05:35:55;;;;;;;23.15;10.32;;;;;;;-1.24;76.12;102168.41;1739864;82;21582;-66
2023/01/25 05:38:26;;;;;;;20.68;9.88;;;;;;;-1.23;76.05;102164.77;1740525;82;21234;-64
2023/01/25 05:40:58;;;;;;;27.85;9.85;;;;;;;-1.21;76.08;102164.22;1701307;82;21118;-68
2023/01/25 05:43:30;;;;;;;19.77;9.78;;;;;;;-1.19;76.11;102165.48;1757294;82;21269;-65
2023/01/25 05:45:59;;;;;;;29.15;10.93;;;;;;;-1.20;76.00;102165.95;1757058;82;21186;-66
2023/01/25 05:48:30;;;;;;;24.65;10.38;;;;;;;-1.20;76.02;102168.65;1739972;82;21154;-66
2023/01/25 05:50:58;;;;;;;25.88;10.53;;;;;;;-1.22;75.98;102166.52;1757105;82;21119;-67
2023/01/25 05:53:29;;;;;;;28.30;10.68;;;;;;;-1.24;76.09;102166.19;1757004;81;21698;-66
2023/01/25 05:56:06;;;;;;;29.35;9.98;;;;;;;-1.24;76.10;102168.41;1757124;81;21270;-67
2023/01/25 05:58:38;;;;;;;21.20;9.73;;;;;;;-1.25;76.17;102168.02;1757356;81;21130;-67
2023/01/25 06:01:08;;;;;;;25.60;10.93;;;;;;;-1.24;76.08;102164.84;1756913;82;21166;-67
2023/01/25 06:03:40;;;;;;;24.05;10.45;;;;;;;-1.26;76.18;102174.34;1755923;81;21551;-67
2023/01/25 06:06:09;;;;;;;23.75;9.90;;;;;;;-1.25;76.23;102174.73;1756889;80;21140;-67
2023/01/25 06:08:38;;;;;;;27.65;10.65;;;;;;;-1.24;76.28;102176.95;1757237;82;21151;-67
2023/01/25 06:11:13;;;;;;;21.77;10.50;;;;;;;-1.23;76.29;102175.52;1740192;82;21134;-65
2023/01/25 06:13:45;;;;;;;20.70;9.40;;;;;;;-1.23;76.03;102180.03;1757074;81;21099;-68
2023/01/25 06:16:14;;;;;;;20.30;9.83;;;;;;;-1.27;76.05;102168.56;1757118;81;21118;-66
2023/01/25 06:18:48;;;;;;;31.55;11.22;;;;;;;-1.25;76.18;102163.11;1755449;81;21614;-66
2023/01/25 06:21:25;;;;;;;27.17;10.43;;;;;;;-1.22;76.22;102171.89;1754878;81;21143;-66
2023/01/25 06:23:55;;;;;;;30.23;10.18;;;;;;;-1.22;75.96;102173.23;1756978;82;21088;-67
2023/01/25 06:26:24;;;;;;;25.45;10.08;;;;;;;-1.24;76.04;102170.23;1757119;82;21107;-66
2023/01/25 06:28:54;;;;;;;23.42;9.88;;;;;;;-1.19;76.14;102173.08;1757220;81;21138;-68
2023/01/25 06:31:26;;;;;;;25.70;10.32;;;;;;;-1.17;76.08;102173.87;1756912;82;21194;-67
2023/01/25 06:33:59;;;;;;;21.15;10.08;;;;;;;-1.17;75.95;102174.34;1756810;82;21218;-67
2023/01/25 06:36:31;;;;;;;27.85;11.28;;;;;;;-1.19;75.86;102158.28;1757282;82;21158;-68
2023/01/25 06:39:02;;;;;;;26.20;10.55;;;;;;;-1.21;75.83;102166.03;1756861;82;21203;-68
2023/01/25 06:41:32;;;;;;;38.35;10.80;;;;;;;-1.22;75.90;102165.16;1756806;81;21181;-67
2023/01/25 06:44:03;;;;;;;25.55;11.40;;;;;;;-1.21;76.02;102167.38;1756811;82;21249;-68
2023/01/25 06:46:32;;;;;;;29.95;10.90;;;;;;;-1.21;76.05;102172.28;1757321;82;21099;-68
2023/01/25 06:49:03;;;;;;;28.70;10.68;;;;;;;-1.20;75.99;102170.47;1756919;81;21147;-67
2023/01/25 06:51:35;;;;;;;25.80;11.12;;;;;;;-1.22;75.97;102166.52;1757050;82;21111;-68
2023/01/25 06:54:04;;;;;;;30.85;12.65;;;;;;;-1.22;76.04;102161.61;1756812;82;21577;-67
2023/01/25 06:56:34;;;;;;;28.02;12.40;;;;;;;-1.21;75.95;102160.18;1740135;82;21110;-67
2023/01/25 06:59:05;;;;;;;25.43;12.00;;;;;;;-1.23;75.93;102163.90;1757169;82;21202;-67
2023/01/25 07:01:34;;;;;;;28.70;12.47;;;;;;;-1.24;75.96;102155.44;1757086;82;21135;-66
2023/01/25 07:04:05;;;;;;;27.93;12.25;;;;;;;-1.23;76.11;102151.80;1756899;80;21514;-70
2023/01/25 07:06:36;;;;;;;24.92;11.10;;;;;;;-1.20;76.28;102160.58;1757053;82;21194;-68
2023/01/25 07:09:09;;;;;;;26.75;11.22;;;;;;;-1.16;76.15;102161.29;1740081;82;21577;-68
2023/01/25 07:11:40;;;;;;;28.05;11.68;;;;;;;-1.18;75.93;102153.30;1757074;81;21090;-69
2023/01/25 07:14:30;;;;;;;30.10;13.15;;;;;;;-1.19;75.96;102154.25;1756957;82;21166;-68
2023/01/25 07:17:00;;;;;;;33.92;13.08;;;;;;;-1.19;75.96;102159.63;1717142;83;21146;-69
2023/01/25 07:19:31;;;;;;;27.10;11.40;;;;;;;-1.18;76.02;102160.50;1691695;83;21110;-68
2023/01/25 07:22:01;;;;;;;25.95;12.65;;;;;;;-1.18;76.03;102158.67;1717244;83;21106;-68
2023/01/25 07:24:31;;;;;;;30.30;12.40;;;;;;;-1.18;75.96;102158.67;1691526;83;21130;-68
2023/01/25 07:27:03;;;;;;;30.40;12.30;;;;;;;-1.20;75.87;102155.67;1717391;83;21138;-69
2023/01/25 07:29:32;;;;;;;29.92;11.90;;;;;;;-1.22;75.89;102155.75;1717232;83;21274;-69
2023/01/25 07:32:05;;;;;;;26.80;12.45;;;;;;;-1.22;75.88;102156.23;1717203;83;21161;-69
2023/01/25 07:34:34;;;;;;;25.08;11.15;;;;;;;-1.22;75.87;102151.72;1717086;83;21632;-68
2023/01/25 07:37:04;;;;;;;24.15;11.68;;;;;;;-1.23;75.87;102147.29;1717096;83;21127;-68
2023/01/25 07:39:33;;;;;;;25.08;13.22;;;;;;;-1.22;75.77;102144.12;1717351;83;21102;-68
2023/01/25 07:42:03;;;;;;;34.10;13.62;;;;;;;-1.21;75.79;102140.48;1717063;83;21177;-68
2023/01/25 07:44:33;;;;;;;30.70;11.93;;;;;;;-1.18;75.73;102134.95;1717130;83;21141;-68
2023/01/25 07:47:06;;;;;;;28.67;12.73;;;;;;;-1.18;75.60;102138.98;1714333;83;21114;-68
2023/01/25 07:49:37;;;;;;;28.35;13.10;;;;;;;-1.21;75.59;102137.33;1717001;83;21150;-68
2023/01/25 07:52:07;;;;;;;23.47;12.05;;;;;;;-1.24;75.63;102138.83;1717395;83;21550;-68
2023/01/25 07:54:38;;;;;;;28.57;12.05;;;;;;;-1.26;75.65;102135.34;1717115;83;21185;-68
2023/01/25 07:57:09;;;;;;;28.87;12.85;;;;;;;-1.24;75.82;102137.95;1717442;83;21134;-67
2023/01/25 07:59:39;;;;;;;33.38;14.33;;;;;;;-1.22;75.86;102136.06;1694987;83;21181;-67
2023/01/25 08:02:11;;;;;;;28.60;12.60;;;;;;;-1.20;75.80;102139.53;1717462;83;21201;-68
2023/01/25 08:04:41;;;;;;;37.80;13.50;;;;;;;-1.21;75.75;102136.45;1657607;83;21633;-69
2023/01/25 08:07:13;;;;;;;31.37;13.32;;;;;;;-1.22;75.78;102132.02;1717347;83;21190;-68
2023/01/25 08:09:42;;;;;;;34.40;15.25;;;;;;;-1.20;75.91;102129.65;1717173;83;21130;-68
2023/01/25 08:12:11;;;;;;;33.92;13.30;;;;;;;-1.17;75.91;102126.80;1717516;83;21204;-67
2023/01/25 08:14:41;;;;;;;34.20;13.32;;;;;;;-1.17;75.84;102132.18;1717250;83;21131;-67
2023/01/25 08:17:11;;;;;;;30.05;12.65;;;;;;;-1.16;75.83;102129.02;1663384;86;21574;-70
2023/01/25 08:19:40;;;;;;;35.08;13.70;;;;;;;-1.19;75.72;102134.55;1686971;84;21550;-68
2023/01/25 08:22:12;;;;;;;28.12;13.50;;;;;;;-1.20;75.81;102133.69;1663666;86;21154;-68
2023/01/25 08:24:42;;;;;;;30.25;13.58;;;;;;;-1.22;75.72;102138.27;1684590;85;21237;-69
2023/01/25 08:27:12;;;;;;;26.82;13.65;;;;;;;-1.22;75.86;102142.30;1687065;85;21150;-69
2023/01/25 08:29:42;;;;;;;29.57;14.18;;;;;;;-1.19;75.94;102143.49;1663540;86;21175;-68
2023/01/25 08:32:12;;;;;;;28.57;14.10;;;;;;;-1.17;76.00;102134.87;1687256;85;21138;-68
2023/01/25 08:34:41;;;;;;;36.80;14.23;;;;;;;-1.12;75.97;102134.16;1663315;86;21142;-69
2023/01/25 08:37:13;;;;;;;38.53;15.25;;;;;;;-1.08;75.72;102138.42;1686855;84;21175;-68
2023/01/25 08:39:44;;;;;;;29.45;13.88;;;;;;;-1.12;75.67;102128.77;1663449;86;21610;-68
2023/01/25 08:42:14;;;;;;;44.65;16.02;;;;;;;-1.11;75.67;102129.64;1687103;85;21193;-69
2023/01/25 08:44:44;;;;;;;30.90;13.50;;;;;;;-1.10;75.70;102132.25;1663511;86;21227;-67
2023/01/25 08:47:14;;;;;;;39.05;18.05;;;;;;;-1.07;75.58;102133.44;1686906;85;21186;-68
2023/01/25 08:49:45;;;;;;;30.77;13.62;;;;;;;-1.08;75.49;102133.05;1663313;86;21221;-68
2023/01/25 08:52:16;;;;;;;29.00;14.60;;;;;;;-1.08;75.44;102127.66;1687248;85;21162;-68
2023/01/25 08:54:49;;;;;;;37.38;15.00;;;;;;;-1.07;75.40;102135.25;1663234;86;21178;-68
2023/01/25 08:57:19;;;;;;;37.85;15.85;;;;;;;-1.10;75.36;102136.77;1676221;85;21168;-69
2023/01/25 08:59:48;;;;;;;36.23;15.72;;;;;;;-1.13;75.46;102133.75;1680869;85;21197;-67
2023/01/25 09:02:20;;;;;;;40.05;15.78;;;;;;;-1.10;75.53;102137.63;1666911;85;21134;-67
2023/01/25 09:04:48;;;;;;;28.30;14.55;;;;;;;-1.01;76.23;102142.53;1681603;84;21553;-68
2023/01/25 09:07:18;;;;;;;29.10;15.03;;;;;;;-0.95;75.93;102134.61;1645922;87;21205;-69
2023/01/25 09:09:48;;;;;;;33.50;16.82;;;;;;;-0.94;75.74;102126.06;1675598;86;21172;-68
2023/01/25 09:12:18;;;;;;;36.15;16.90;;;;;;;-0.91;75.69;102137.53;1649384;86;21121;-66
2023/01/25 09:14:49;;;;;;;43.10;16.10;;;;;;;-0.88;75.57;102141.41;1694560;85;21178;-66
2023/01/25 09:17:19;;;;;;;39.33;15.38;;;;;;;-0.92;75.38;102131.75;1719392;83;21200;-66
2023/01/25 09:19:47;;;;;;;37.35;14.23;;;;;;;-0.90;75.38;102135.70;1697683;83;21215;-69
2023/01/25 09:22:17;;;;;;;41.90;16.27;;;;;;;-0.90;76.07;102136.58;1750300;82;21157;-67
2023/01/25 09:24:50;;;;;;;35.08;15.98;;;;;;;-0.91;75.51;102132.15;1734616;82;21169;-68
2023/01/25 09:27:18;;;;;;;38.67;15.38;;;;;;;-0.93;75.43;102135.88;1701000;83;21126;-67
2023/01/25 09:29:48;;;;;;;33.92;14.43;;;;;;;-0.92;75.50;102134.45;1737483;82;21138;-66
2023/01/25 09:32:20;;;;;;;42.23;15.90;;;;;;;-0.92;75.31;102137.13;1747952;81;21221;-67
2023/01/25 09:34:54;;;;;;;37.23;16.20;;;;;;;-0.90;75.25;102140.61;1749999;81;21134;-66
2023/01/25 09:37:23;;;;;;;36.25;16.00;;;;;;;-0.86;75.24;102131.91;1750159;82;21265;-67
2023/01/25 09:39:52;;;;;;;37.48;17.05;;;;;;;-0.84;75.24;102127.31;1750449;82;21123;-67
2023/01/25 09:42:52;;;;;;;38.28;15.93;;;;;;;-0.82;75.26;102128.09;1750294;82;21145;-67
2023/01/25 09:45:33;;;;;;;38.20;17.48;;;;;;;-0.78;75.24;102128.33;1750399;82;21154;-69
2023/01/25 09:48:08;;;;;;;46.95;17.90;;;;;;;-0.74;75.03;102117.79;1750318;82;21635;-67
2023/01/25 09:51:01;;;;;;;40.00;16.67;;;;;;;-0.74;74.79;102120.00;1750448;81;21217;-70
2023/01/25 09:53:40;;;;;;;40.60;17.87;;;;;;;-0.74;74.74;102115.97;1750539;82;21206;-65
2023/01/25 09:56:34;;;;;;;39.40;16.40;;;;;;;-0.78;74.57;102114.87;1750303;82;21130;-68
2023/01/25 09:59:15;;;;;;;47.45;18.42;;;;;;;-0.81;74.73;102108.30;1750347;82;21146;-66
2023/01/25 10:02:01;;;;;;;35.85;17.10;;;;;;;-0.77;74.91;102111.22;1750345;82;21110;-67
2023/01/25 10:04:37;;;;;;;44.77;18.10;;;;;;;-0.75;74.87;102110.19;1757596;81;21267;-66
2023/01/25 10:07:21;;;;;;;42.87;18.13;;;;;;;-0.73;74.88;102093.48;1763464;81;21152;-66
2023/01/25 10:09:56;;;;;;;41.02;18.20;;;;;;;-0.71;74.79;102091.58;1739764;81;21130;-66
2023/01/25 10:12:25;;;;;;;46.75;18.37;;;;;;;-0.71;74.74;102096.09;1713950;84;21125;-67
2023/01/25 10:15:02;;;;;;;41.10;18.95;;;;;;;-0.71;74.74;102093.40;1750517;82;21158;-66
2023/01/25 10:17:40;;;;;;;40.43;17.77;;;;;;;-0.73;74.74;102084.53;1750014;82;21209;-78
2023/01/25 10:20:38;;;;;;;34.05;16.80;;;;;;;-0.72;74.83;102078.20;1750374;82;21154;-67
2023/01/25 10:23:33;;;;;;;40.75;18.75;;;;;;;-0.73;74.67;102073.77;1750074;81;21619;-67
2023/01/25 10:26:13;;;;;;;45.43;18.65;;;;;;;-0.75;74.71;102065.78;1714397;83;21236;-67
2023/01/25 10:29:11;;;;;;;49.65;20.43;;;;;;;-0.74;74.83;102062.61;1710734;82;21136;-68
2023/01/25 10:31:52;;;;;;;51.70;19.87;;;;;;;-0.76;74.80;102062.70;1714175;84;21208;-65
2023/01/25 10:34:37;;;;;;;50.78;20.48;;;;;;;-0.79;74.72;102056.61;1717337;82;21133;-67
2023/01/25 10:37:16;;;;;;;51.35;19.20;;;;;;;-0.82;74.77;102053.62;1714115;83;21174;-66
2023/01/25 10:40:03;;;;;;;44.35;19.23;;;;;;;-0.83;74.90;102051.01;1717263;83;21419;-66
2023/01/25 10:42:52;;;;;;;42.55;19.17;;;;;;;-0.76;75.50;102049.72;1717482;83;21146;-67
2023/01/25 10:45:25;;;;;;;36.20;18.30;;;;;;;-0.74;75.26;102044.64;1717066;83;21193;-69
2023/01/25 10:48:03;;;;;;;42.70;18.55;;;;;;;-0.72;75.13;102040.52;1717302;83;21155;-66
2023/01/25 10:50:45;;;;;;;42.88;20.25;;;;;;;-0.73;74.76;102037.44;1717237;83;21269;-66
2023/01/25 10:53:32;;;;;;;44.45;18.45;;;;;;;-0.76;74.74;102034.44;1717320;83;21547;-69
2023/01/25 10:56:12;;;;;;;46.08;20.50;;;;;;;-0.82;74.39;102027.19;1707447;83;21674;-68
2023/01/25 10:58:47;;;;;;;41.63;18.73;;;;;;;-0.90;74.60;102030.30;1655733;86;21154;-67
2023/01/25 11:01:30;;;;;;;41.95;19.85;;;;;;;-0.89;74.85;102028.47;1655713;87;21148;-68
2023/01/25 11:04:00;;;;;;;42.38;18.80;;;;;;;-0.89;74.77;102024.44;1648732;87;21146;-67
2023/01/25 11:06:38;;;;;;;52.03;19.15;;;;;;;-0.88;74.90;102020.80;1647855;87;21147;-67
2023/01/25 11:09:32;;;;;;;51.23;19.45;;;;;;;-0.85;74.86;102019.28;1645199;87;21127;-67
2023/01/25 11:12:07;;;;;;;38.90;17.52;;;;;;;-0.89;74.68;102015.02;1647048;87;21172;-66
2023/01/25 11:14:36;;;;;;;48.55;19.95;;;;;;;-0.99;74.57;102010.63;1649269;86;21203;-68
2023/01/25 11:17:17;;;;;;;49.10;19.42;;;;;;;-1.04;74.93;102017.59;1686141;83;21150;-67
2023/01/25 11:19:48;;;;;;;42.88;18.92;;;;;;;-1.03;75.10;102012.61;1717341;83;21115;-67
2023/01/25 11:22:25;;;;;;;48.13;18.20;;;;;;;-0.97;76.36;102010.06;1717393;82;21557;-67
2023/01/25 11:24:54;;;;;;;40.33;18.55;;;;;;;-0.86;76.27;102006.30;1717071;82;21591;-66
2023/01/25 11:27:26;;;;;;;45.03;17.87;;;;;;;-0.77;76.17;101998.19;1717287;82;21161;-68
2023/01/25 11:30:15;;;;;;;40.20;18.20;;;;;;;-0.73;75.88;101999.76;1717341;83;21131;-67
2023/01/25 11:32:45;;;;;;;35.65;17.17;;;;;;;-0.71;75.64;101999.19;1716082;83;21875;-68
2023/01/25 11:35:17;;;;;;;44.60;17.87;;;;;;;-0.70;75.19;101996.89;1693639;83;21191;-74
2023/01/25 11:38:12;;;;;;;34.27;16.27;;;;;;;-0.77;74.93;102000.41;1728780;82;21172;-67
2023/01/25 11:40:53;;;;;;;39.65;17.30;;;;;;;-0.79;75.55;101996.06;1728626;83;21140;-68
2023/01/25 11:44:01;;;;;;;34.88;15.88;;;;;;;-0.77;75.42;101986.08;1711222;83;21125;-70